createdAt,value
2022-12-03T00:02:36.031Z,30.95
2022-12-03T00:05:23.215Z,27.70
2022-12-03T00:08:10.341Z,31.23
2022-12-03T00:10:57.519Z,31.83
2022-12-03T00:13:45.572Z,29.10
2022-12-03T00:16:32.798Z,31.23
2022-12-03T00:19:19.994Z,24.30
2022-12-03T00:22:07.084Z,31.17
2022-12-03T00:24:54.451Z,28.77
2022-12-03T00:27:41.960Z,28.88
2022-12-03T00:30:28.996Z,27.23
2022-12-03T00:33:16.074Z,33.72
2022-12-03T00:36:03.213Z,27.85
2022-12-03T00:38:51.270Z,28.10
2022-12-03T00:41:38.403Z,30.45
2022-12-03T00:44:25.787Z,29.50
2022-12-03T00:47:12.997Z,33.83
2022-12-03T00:50:00.211Z,30.30
2022-12-03T00:52:47.381Z,31.63
2022-12-03T00:55:34.547Z,34.33
2022-12-03T00:58:21.725Z,25.73
2022-12-03T01:01:08.848Z,26.83
2022-12-03T01:03:56.148Z,31.50
2022-12-03T01:06:43.341Z,27.88
2022-12-03T01:09:31.435Z,25.90
2022-12-03T01:12:18.695Z,26.75
2022-12-03T01:15:06.973Z,25.17
2022-12-03T01:17:54.390Z,22.73
2022-12-03T01:20:41.629Z,24.33
2022-12-03T01:23:28.687Z,31.90
2022-12-03T01:26:15.756Z,29.25
2022-12-03T01:29:03.052Z,27.80
2022-12-03T01:32:08.714Z,23.15
2022-12-03T01:34:56.292Z,24.73
2022-12-03T01:37:43.647Z,31.33
2022-12-03T01:40:30.745Z,25.15
2022-12-03T01:43:17.900Z,29.55
2022-12-03T01:46:05.634Z,31.25
2022-12-03T01:48:55.980Z,28.10
2022-12-03T01:51:43.244Z,30.60
2022-12-03T01:54:40.088Z,24.25
2022-12-03T01:57:30.635Z,26.70
2022-12-03T02:00:21.145Z,36.58
2022-12-03T02:03:22.351Z,33.17
2022-12-03T02:06:20.871Z,33.25
2022-12-03T02:09:11.301Z,33.97
2022-12-03T02:11:58.551Z,37.63
2022-12-03T02:14:46.435Z,30.88
2022-12-03T02:17:33.965Z,30.83
2022-12-03T02:20:21.820Z,33.50
2022-12-03T02:23:26.169Z,37.75
2022-12-03T02:26:13.432Z,44.10
2022-12-03T02:29:02.350Z,40.70
2022-12-03T02:31:49.544Z,46.20
2022-12-03T02:34:45.242Z,49.97
2022-12-03T02:37:36.810Z,51.80
2022-12-03T02:40:26.458Z,54.33
2022-12-03T02:43:16.568Z,69.78
2022-12-03T02:46:07.299Z,72.78
2022-12-03T02:48:55.093Z,48.28
2022-12-03T02:51:42.376Z,78.38
2022-12-03T02:54:29.565Z,59.08
2022-12-03T02:57:17.332Z,113.90
2022-12-03T03:00:09.483Z,72.90
2022-12-03T03:02:57.027Z,87.65
2022-12-03T03:05:45.125Z,92.63
2022-12-03T03:08:32.868Z,111.80
2022-12-03T03:11:20.146Z,135.32
2022-12-03T03:14:07.260Z,120.80
2022-12-03T03:16:56.290Z,112.10
2022-12-03T03:19:43.561Z,99.55
2022-12-03T03:22:35.345Z,104.05
2022-12-03T03:25:24.610Z,112.30
2022-12-03T03:28:14.190Z,128.07
2022-12-03T03:31:04.114Z,161.23
2022-12-03T03:33:51.730Z,85.97
2022-12-03T03:36:39.497Z,108.95
2022-12-03T03:39:26.600Z,125.75
2022-12-03T03:42:13.802Z,158.80
2022-12-03T03:45:01.835Z,102.18
2022-12-03T03:47:48.959Z,104.22
2022-12-03T03:50:36.157Z,171.52
2022-12-03T03:53:24.472Z,120.25
2022-12-03T03:56:12.025Z,135.27
2022-12-03T03:58:59.509Z,101.07
2022-12-03T04:01:47.015Z,91.43
2022-12-03T04:04:36.636Z,71.97
2022-12-03T04:07:24.337Z,93.30
2022-12-03T04:10:32.134Z,124.75
2022-12-03T04:13:19.210Z,119.72
2022-12-03T04:16:06.645Z,114.53
2022-12-03T04:18:53.798Z,131.25
2022-12-03T04:21:59.461Z,113.47
2022-12-03T04:24:46.609Z,136.85
2022-12-03T04:27:52.585Z,177.57
2022-12-03T04:30:39.870Z,112.32
2022-12-03T04:33:45.454Z,112.63
2022-12-03T04:36:32.616Z,120.75
2022-12-03T04:39:20.909Z,179.60
2022-12-03T04:42:07.984Z,165.30
2022-12-03T04:44:55.309Z,200.35
2022-12-03T04:47:42.648Z,163.60
2022-12-03T04:50:29.765Z,145.15
2022-12-03T04:53:17.084Z,180.80
2022-12-03T04:56:04.345Z,213.82
2022-12-03T04:58:51.697Z,232.05
2022-12-03T05:01:38.791Z,233.77
2022-12-03T05:04:26.087Z,150.48
2022-12-03T05:07:13.179Z,225.77
2022-12-03T05:10:00.341Z,195.38
2022-12-03T05:12:47.452Z,160.68
2022-12-03T05:15:34.680Z,171.90
2022-12-03T05:18:21.767Z,168.23
2022-12-03T05:21:09.474Z,185.90
2022-12-03T05:23:56.702Z,149.15
2022-12-03T05:26:43.822Z,226.13
2022-12-03T05:29:31.014Z,141.38
2022-12-03T05:32:18.492Z,245.23
2022-12-03T05:35:06.082Z,274.98
2022-12-03T05:37:53.305Z,229.30
2022-12-03T05:40:40.533Z,215.25
2022-12-03T05:43:27.637Z,272.55
2022-12-03T05:46:14.778Z,222.40
2022-12-03T05:49:02.043Z,187.95
2022-12-03T05:51:53.671Z,175.00
2022-12-03T05:54:43.956Z,205.57
2022-12-03T05:57:31.050Z,262.80
2022-12-03T06:00:27.344Z,217.23
2022-12-03T06:03:15.333Z,214.98
2022-12-03T06:06:02.700Z,297.73
2022-12-03T06:08:49.781Z,223.07
2022-12-03T06:11:37.378Z,301.13
2022-12-03T06:14:24.513Z,282.70
2022-12-03T06:17:11.626Z,341.13
2022-12-03T06:19:58.664Z,231.48
2022-12-03T06:22:46.485Z,227.23
2022-12-03T06:25:33.637Z,129.52
2022-12-03T06:28:20.840Z,184.38
2022-12-03T06:31:07.948Z,131.38
2022-12-03T06:33:55.133Z,161.07
2022-12-03T06:36:42.295Z,166.38
2022-12-03T06:39:29.676Z,157.43
2022-12-03T06:42:16.732Z,184.32
2022-12-03T06:45:04.590Z,175.77
2022-12-03T06:47:51.754Z,143.95
2022-12-03T06:50:38.748Z,114.35
2022-12-03T06:53:25.792Z,118.55
2022-12-03T06:56:12.963Z,135.88
2022-12-03T06:59:00.112Z,133.77
2022-12-03T07:01:47.255Z,148.50
2022-12-03T07:04:34.557Z,126.03
2022-12-03T07:07:36.372Z,111.15
2022-12-03T07:10:23.812Z,108.43
2022-12-03T07:13:10.872Z,109.65
2022-12-03T07:15:57.958Z,102.32
2022-12-03T07:18:45.117Z,96.78
2022-12-03T07:21:32.248Z,98.88
2022-12-03T07:24:19.373Z,95.70
2022-12-03T07:27:06.665Z,86.20
2022-12-03T07:29:53.938Z,112.63
2022-12-03T07:32:41.166Z,119.45
2022-12-03T07:35:28.287Z,116.32
2022-12-03T07:38:15.373Z,110.15
2022-12-03T07:41:02.481Z,120.15
2022-12-03T07:43:49.550Z,96.90
2022-12-03T07:46:36.617Z,108.72
2022-12-03T07:49:23.861Z,92.47
2022-12-03T07:52:10.960Z,108.32
2022-12-03T07:54:57.995Z,115.75
2022-12-03T07:57:45.115Z,116.57
2022-12-03T08:00:32.261Z,115.15
2022-12-03T08:03:19.406Z,128.23
2022-12-03T08:06:06.718Z,99.93
2022-12-03T08:08:53.789Z,113.53
2022-12-03T08:11:41.853Z,89.85
2022-12-03T08:14:29.774Z,88.28
2022-12-03T08:17:19.740Z,85.88
2022-12-03T08:20:24.496Z,75.35
2022-12-03T08:23:23.007Z,81.82
2022-12-03T08:26:31.038Z,66.85
2022-12-03T08:29:19.959Z,84.90
2022-12-03T08:32:11.304Z,72.07
2022-12-03T08:35:00.654Z,78.03
2022-12-03T08:37:51.396Z,76.32
2022-12-03T08:40:45.465Z,69.70
2022-12-03T08:43:41.861Z,61.78
2022-12-03T08:46:29.178Z,67.25
2022-12-03T08:49:16.557Z,56.58
2022-12-03T08:52:12.489Z,62.67
2022-12-03T08:55:02.796Z,73.28
2022-12-03T08:57:49.932Z,75.95
2022-12-03T09:00:37.152Z,86.90
2022-12-03T09:03:24.720Z,78.03
2022-12-03T09:06:11.805Z,74.22
2022-12-03T09:09:02.468Z,65.13
2022-12-03T09:11:54.104Z,70.40
2022-12-03T09:14:41.219Z,72.68
2022-12-03T09:17:28.495Z,70.93
2022-12-03T09:20:15.637Z,67.53
2022-12-03T09:23:02.824Z,54.67
2022-12-03T09:25:49.917Z,63.25
2022-12-03T09:28:37.139Z,63.45
2022-12-03T09:31:24.939Z,59.97
2022-12-03T09:34:12.107Z,58.63
2022-12-03T09:36:59.114Z,57.55
2022-12-03T09:39:46.145Z,54.10
2022-12-03T09:42:33.798Z,48.72
2022-12-03T09:45:21.086Z,40.22
2022-12-03T09:48:08.168Z,41.92
2022-12-03T09:50:55.470Z,37.72
2022-12-03T09:53:42.601Z,40.65
2022-12-03T09:56:29.979Z,41.53
2022-12-03T09:59:17.458Z,43.30
2022-12-03T10:02:18.038Z,43.35
2022-12-03T10:05:05.525Z,39.17
2022-12-03T10:07:53.278Z,41.47
2022-12-03T10:10:41.958Z,41.88
2022-12-03T10:13:30.807Z,40.03
2022-12-03T10:16:20.824Z,34.05
2022-12-03T10:19:11.557Z,37.30
2022-12-03T10:21:58.809Z,35.55
2022-12-03T10:24:45.850Z,34.85
2022-12-03T10:28:00.725Z,35.08
2022-12-03T10:30:55.609Z,44.90
2022-12-03T10:33:46.022Z,44.90
2022-12-03T10:36:33.237Z,40.27
2022-12-03T10:39:20.278Z,36.97
2022-12-03T10:42:18.914Z,32.67
2022-12-03T10:45:22.311Z,38.75
2022-12-03T10:48:25.654Z,38.35
2022-12-03T10:51:21.277Z,43.47
2022-12-03T10:54:17.078Z,41.80
2022-12-03T10:57:05.059Z,35.00
2022-12-03T10:59:52.329Z,41.00
2022-12-03T11:02:39.946Z,39.72
2022-12-03T11:05:28.428Z,37.30
2022-12-03T11:08:18.491Z,38.28
2022-12-03T11:11:26.437Z,38.63
2022-12-03T11:14:16.872Z,43.17
2022-12-03T11:17:09.263Z,41.25
2022-12-03T11:19:56.469Z,40.88
2022-12-03T11:22:45.489Z,40.58
2022-12-03T11:25:47.046Z,46.13
2022-12-03T11:28:36.243Z,48.30
2022-12-03T11:31:40.381Z,44.35
2022-12-03T11:34:31.479Z,43.95
2022-12-03T11:37:20.304Z,55.78
2022-12-03T11:40:16.488Z,49.65
2022-12-03T11:43:05.423Z,57.45
2022-12-03T11:45:52.632Z,51.72
2022-12-03T11:48:48.010Z,46.65
2022-12-03T11:51:35.069Z,47.58
2022-12-03T11:54:23.536Z,45.05
2022-12-03T11:57:40.575Z,52.13
2022-12-03T12:00:28.174Z,55.78
2022-12-03T12:03:33.711Z,55.85
2022-12-03T12:06:21.823Z,61.10
2022-12-03T12:09:11.382Z,63.73
2022-12-03T12:12:18.372Z,47.38
2022-12-03T12:15:33.603Z,55.88
2022-12-03T12:18:39.581Z,56.55
2022-12-03T12:21:50.728Z,52.25
2022-12-03T12:24:43.070Z,56.90
2022-12-03T12:27:40.950Z,59.22
2022-12-03T12:30:28.210Z,56.05
2022-12-03T12:33:23.247Z,51.63
2022-12-03T12:36:10.736Z,42.25
2022-12-03T12:38:59.836Z,48.75
2022-12-03T12:41:51.420Z,50.80
2022-12-03T12:44:40.077Z,50.17
2022-12-03T12:47:30.063Z,45.15
2022-12-03T12:50:18.885Z,42.85
2022-12-03T12:53:26.067Z,47.22
2022-12-03T12:56:26.789Z,49.35
2022-12-03T12:59:24.297Z,62.28
2022-12-03T13:02:44.325Z,56.00
2022-12-03T13:05:39.673Z,56.65
2022-12-03T13:08:29.474Z,57.25
2022-12-03T13:11:41.247Z,59.67
2022-12-03T13:14:35.641Z,64.30
2022-12-03T13:17:24.541Z,57.50
2022-12-03T13:20:19.192Z,78.47
2022-12-03T13:23:34.416Z,69.20
2022-12-03T13:26:36.045Z,60.10
2022-12-03T13:29:27.246Z,64.22
2022-12-03T13:32:20.784Z,51.58
2022-12-03T13:35:22.774Z,59.17
2022-12-03T13:38:16.246Z,49.08
2022-12-03T13:41:03.912Z,52.30
2022-12-03T13:43:51.043Z,52.25
2022-12-03T13:46:38.154Z,50.10
2022-12-03T13:49:26.225Z,42.67
2022-12-03T13:52:18.912Z,66.15
2022-12-03T13:55:07.214Z,53.33
2022-12-03T13:57:54.935Z,54.05
2022-12-03T14:00:42.558Z,57.58
2022-12-03T14:03:29.641Z,59.50
2022-12-03T14:06:16.742Z,52.65
2022-12-03T14:09:04.362Z,59.35
2022-12-03T14:12:10.400Z,51.55
2022-12-03T14:14:57.612Z,55.10
2022-12-03T14:17:44.727Z,62.70
2022-12-03T14:20:32.157Z,58.67
2022-12-03T14:23:19.201Z,50.75
2022-12-03T14:26:06.478Z,64.50
2022-12-03T14:28:53.629Z,63.83
2022-12-03T14:31:40.857Z,59.78
2022-12-03T14:34:28.000Z,64.50
2022-12-03T14:37:16.070Z,56.28
2022-12-03T14:40:04.705Z,57.70
2022-12-03T14:42:51.819Z,67.85
2022-12-03T14:45:41.330Z,64.38
2022-12-03T14:48:28.918Z,62.92
2022-12-03T14:51:16.190Z,58.13
2022-12-03T14:54:04.014Z,62.10
2022-12-03T14:56:52.594Z,62.13
2022-12-03T14:59:44.734Z,63.85
2022-12-03T15:02:32.463Z,64.15
2022-12-03T15:05:24.913Z,56.13
2022-12-03T15:08:16.261Z,69.30
2022-12-03T15:11:03.791Z,65.25
2022-12-03T15:13:50.982Z,60.75
2022-12-03T15:16:38.179Z,59.30
2022-12-03T15:19:25.439Z,56.58
2022-12-03T15:22:12.884Z,53.17
2022-12-03T15:25:02.074Z,67.22
2022-12-03T15:27:49.331Z,57.80
2022-12-03T15:30:36.478Z,62.20
2022-12-03T15:33:24.234Z,58.72
2022-12-03T15:36:11.554Z,58.92
2022-12-03T15:39:00.044Z,63.00
2022-12-03T15:44:43.945Z,49.78
2022-12-03T15:47:31.616Z,47.20
2022-12-03T15:50:19.950Z,46.58
2022-12-03T15:53:07.685Z,59.08
2022-12-03T15:55:56.109Z,57.00
2022-12-03T15:58:43.901Z,57.92
2022-12-03T16:01:31.543Z,30.70
2022-12-03T16:04:19.039Z,70.93
2022-12-03T16:07:07.078Z,66.63
2022-12-03T16:09:55.545Z,65.72
2022-12-03T16:12:43.015Z,66.88
2022-12-03T16:15:30.290Z,68.40
2022-12-03T16:18:17.501Z,55.80
2022-12-03T16:21:04.502Z,60.70
2022-12-03T16:23:51.522Z,64.03
2022-12-03T16:26:38.793Z,68.53
2022-12-03T16:29:26.419Z,64.72
2022-12-03T16:32:13.618Z,79.18
2022-12-03T16:35:00.830Z,88.53
2022-12-03T16:37:47.987Z,71.03
2022-12-03T16:40:35.003Z,74.10
2022-12-03T16:43:22.037Z,78.32
2022-12-03T16:46:15.042Z,85.20
2022-12-03T16:49:03.690Z,79.55
2022-12-03T16:51:50.753Z,89.13
2022-12-03T16:54:37.999Z,84.63
2022-12-03T16:57:29.006Z,82.53
2022-12-03T17:00:21.754Z,66.82
2022-12-03T17:03:09.161Z,77.28
2022-12-03T17:05:56.449Z,90.18
2022-12-03T17:08:49.093Z,64.88
2022-12-03T17:11:36.612Z,67.90
2022-12-03T17:14:27.273Z,59.90
2022-12-03T17:17:17.041Z,64.28
2022-12-03T17:20:06.234Z,64.13
2022-12-03T17:22:53.581Z,60.55
2022-12-03T17:25:40.794Z,62.88
2022-12-03T17:28:27.866Z,65.22
2022-12-03T17:31:15.305Z,63.53
2022-12-03T17:34:02.484Z,61.90
2022-12-03T17:36:49.658Z,67.82
2022-12-03T17:39:37.022Z,64.50
2022-12-03T17:42:24.201Z,66.88
2022-12-03T17:45:12.471Z,59.55
2022-12-03T17:47:59.631Z,66.25
2022-12-03T17:50:48.538Z,79.38
2022-12-03T17:53:35.744Z,78.68
2022-12-03T17:56:22.878Z,72.18
2022-12-03T17:59:13.927Z,94.40
2022-12-03T18:02:01.161Z,88.78
2022-12-03T18:04:48.397Z,75.20
2022-12-03T18:07:36.276Z,82.03
2022-12-03T18:10:23.654Z,80.60
2022-12-03T18:13:11.217Z,72.78
2022-12-03T18:15:58.698Z,71.45
2022-12-03T18:18:46.165Z,88.18
2022-12-03T18:21:34.216Z,69.90
2022-12-03T18:24:21.998Z,73.43
2022-12-03T18:27:10.618Z,74.32
2022-12-03T18:29:58.446Z,72.70
2022-12-03T18:32:46.341Z,74.00
2022-12-03T18:35:34.043Z,74.82
2022-12-03T18:38:26.101Z,78.10
2022-12-03T18:41:13.698Z,83.25
2022-12-03T18:44:03.910Z,69.53
2022-12-03T18:46:54.180Z,80.35
2022-12-03T18:49:42.786Z,103.60
2022-12-03T18:52:30.330Z,90.18
2022-12-03T18:55:19.385Z,88.30
2022-12-03T18:58:06.822Z,88.85
2022-12-03T19:00:54.981Z,89.28
2022-12-03T19:03:43.505Z,89.50
2022-12-03T19:06:30.928Z,87.05
2022-12-03T19:09:18.237Z,91.90
2022-12-03T19:12:09.846Z,77.53
2022-12-03T19:15:00.309Z,101.18
2022-12-03T19:17:49.360Z,110.53
2022-12-03T19:20:40.071Z,89.70
2022-12-03T19:23:27.249Z,76.38
2022-12-03T19:26:14.995Z,105.90
2022-12-03T19:29:02.981Z,87.85
2022-12-03T19:31:51.405Z,83.30
2022-12-03T19:34:38.634Z,97.18
2022-12-03T19:37:25.677Z,102.93
2022-12-03T19:40:12.927Z,80.90
2022-12-03T19:43:00.076Z,97.25
2022-12-03T19:45:47.147Z,108.18
2022-12-03T19:48:35.780Z,94.88
2022-12-03T19:51:38.506Z,97.75
2022-12-03T19:54:25.657Z,77.18
2022-12-03T19:57:13.657Z,79.05
2022-12-03T20:00:03.673Z,94.97
2022-12-03T20:02:59.352Z,97.30
2022-12-03T20:05:46.499Z,103.13
2022-12-03T20:08:37.269Z,112.07
2022-12-03T20:11:26.792Z,108.38
2022-12-03T20:14:15.853Z,100.75
2022-12-03T20:17:03.139Z,139.75
2022-12-03T20:19:51.311Z,122.25
2022-12-03T20:22:38.654Z,96.03
2022-12-03T20:25:25.853Z,111.63
2022-12-03T20:28:13.169Z,101.20
2022-12-03T20:31:09.697Z,166.98
2022-12-03T20:34:00.663Z,122.55
2022-12-03T20:36:47.957Z,105.88
2022-12-03T20:39:35.054Z,136.25
2022-12-03T20:42:22.728Z,116.30
2022-12-03T20:45:10.446Z,109.40
2022-12-03T20:47:57.532Z,147.18
2022-12-03T20:50:44.719Z,147.18
2022-12-03T20:53:32.461Z,101.70
2022-12-03T20:56:23.478Z,124.68
2022-12-03T20:59:13.346Z,150.05
2022-12-03T21:02:00.719Z,137.02
2022-12-03T21:04:48.072Z,135.18
2022-12-03T21:07:35.410Z,120.22
2022-12-03T21:10:44.683Z,127.47
2022-12-03T21:13:32.561Z,105.72
2022-12-03T21:16:45.548Z,112.55
2022-12-03T21:19:32.396Z,117.55
2022-12-03T21:22:20.453Z,112.78
2022-12-03T21:25:07.854Z,97.65
2022-12-03T21:27:55.249Z,102.30
2022-12-03T21:30:42.558Z,128.52
2022-12-03T21:33:30.701Z,125.85
2022-12-03T21:36:17.842Z,106.32
2022-12-03T21:39:06.005Z,92.05
2022-12-03T21:42:18.903Z,102.47
2022-12-03T21:45:00.220Z,89.10
2022-12-03T21:47:48.172Z,89.25
2022-12-03T21:50:35.705Z,74.32
2022-12-03T21:53:22.879Z,77.88
2022-12-03T21:56:12.779Z,74.95
2022-12-03T21:59:00.378Z,74.50
2022-12-03T22:01:47.782Z,84.10
2022-12-03T22:04:35.209Z,64.50
2022-12-03T22:07:22.377Z,70.95
2022-12-03T22:10:10.971Z,75.80
2022-12-03T22:12:58.876Z,70.18
2022-12-03T22:15:46.088Z,71.18
2022-12-03T22:18:33.477Z,71.65
2022-12-03T22:21:21.745Z,63.17
2022-12-03T22:24:08.902Z,64.78
2022-12-03T22:26:56.141Z,56.90
2022-12-03T22:29:43.420Z,55.38
2022-12-03T22:32:30.513Z,51.10
2022-12-03T22:35:17.651Z,46.90
2022-12-03T22:38:04.954Z,52.35
2022-12-03T22:40:52.740Z,53.80
2022-12-03T22:43:40.297Z,53.70
2022-12-03T22:46:27.505Z,52.20
2022-12-03T22:49:14.651Z,51.20
2022-12-03T22:52:01.807Z,60.78
2022-12-03T22:54:48.974Z,55.33
2022-12-03T22:57:36.158Z,61.47
2022-12-03T23:00:32.490Z,55.28
2022-12-03T23:03:21.275Z,61.45
2022-12-03T23:06:10.522Z,74.03
2022-12-03T23:08:58.573Z,60.92
2022-12-03T23:11:45.981Z,69.22
2022-12-03T23:14:33.930Z,70.22
2022-12-03T23:17:21.019Z,97.57
2022-12-03T23:20:08.665Z,80.35
2022-12-03T23:22:56.137Z,99.43
2022-12-03T23:25:43.334Z,75.72
2022-12-03T23:28:32.105Z,81.65
2022-12-03T23:31:25.350Z,78.97
2022-12-03T23:34:12.566Z,89.18
2022-12-03T23:36:59.838Z,68.78
2022-12-03T23:39:50.041Z,73.75
2022-12-03T23:42:37.124Z,78.10
2022-12-03T23:45:24.264Z,86.70
2022-12-03T23:48:11.567Z,79.70
2022-12-03T23:50:59.509Z,81.95
2022-12-03T23:53:47.430Z,89.90
2022-12-03T23:56:34.704Z,72.57
2022-12-03T23:59:22.502Z,82.38
